sensor_id;sensor_type;location;lat;lon;timestamp;pressure;altitude;pressure_sealevel;temperature;humidity
9695;BME280;4690;52.422;13.486;2023-02-22T00:05:44;101447.63;;;10.34;67.78
9695;BME280;4690;52.422;13.486;2023-02-22T00:08:16;101450.97;;;10.36;67.91
9695;BME280;4690;52.422;13.486;2023-02-22T00:10:43;101444.47;;;10.37;67.94
9695;BME280;4690;52.422;13.486;2023-02-22T00:13:12;101440.66;;;10.38;68.20
9695;BME280;4690;52.422;13.486;2023-02-22T00:15:39;101439.59;;;10.39;67.82
9695;BME280;4690;52.422;13.486;2023-02-22T00:18:08;101436.00;;;10.38;67.97
9695;BME280;4690;52.422;13.486;2023-02-22T00:20:37;101434.34;;;10.37;68.05
9695;BME280;4690;52.422;13.486;2023-02-22T00:23:06;101437.50;;;10.34;68.45
9695;BME280;4690;52.422;13.486;2023-02-22T00:25:33;101437.09;;;10.30;68.70
9695;BME280;4690;52.422;13.486;2023-02-22T00:28:00;101435.97;;;10.25;68.82
9695;BME280;4690;52.422;13.486;2023-02-22T00:30:29;101431.13;;;10.20;68.93
9695;BME280;4690;52.422;13.486;2023-02-22T00:32:57;101435.53;;;10.15;69.29
9695;BME280;4690;52.422;13.486;2023-02-22T00:35:27;101425.19;;;10.10;69.83
9695;BME280;4690;52.422;13.486;2023-02-22T00:37:59;101432.56;;;10.03;69.80
9695;BME280;4690;52.422;13.486;2023-02-22T00:40:31;101429.78;;;9.96;69.84
9695;BME280;4690;52.422;13.486;2023-02-22T00:43:03;101432.31;;;9.91;70.27
9695;BME280;4690;52.422;13.486;2023-02-22T00:45:32;101432.91;;;9.86;70.23
9695;BME280;4690;52.422;13.486;2023-02-22T00:47:59;101436.69;;;9.79;71.13
9695;BME280;4690;52.422;13.486;2023-02-22T00:50:28;101432.19;;;9.64;71.08
9695;BME280;4690;52.422;13.486;2023-02-22T00:52:55;101435.34;;;9.61;71.43
9695;BME280;4690;52.422;13.486;2023-02-22T00:55:26;101431.97;;;9.59;71.24
9695;BME280;4690;52.422;13.486;2023-02-22T00:57:53;101426.47;;;9.59;71.57
9695;BME280;4690;52.422;13.486;2023-02-22T01:00:37;101436.72;;;9.44;72.53
9695;BME280;4690;52.422;13.486;2023-02-22T01:03:09;101436.09;;;9.42;72.83
9695;BME280;4690;52.422;13.486;2023-02-22T01:05:36;101437.09;;;9.34;74.15
9695;BME280;4690;52.422;13.486;2023-02-22T01:08:04;101433.56;;;9.40;73.80
9695;BME280;4690;52.422;13.486;2023-02-22T01:10:32;101435.84;;;9.37;74.03
9695;BME280;4690;52.422;13.486;2023-02-22T01:12:59;101438.56;;;9.37;75.11
9695;BME280;4690;52.422;13.486;2023-02-22T01:15:28;101431.88;;;9.39;74.77
9695;BME280;4690;52.422;13.486;2023-02-22T01:17:56;101436.09;;;9.42;74.85
9695;BME280;4690;52.422;13.486;2023-02-22T01:20:27;101431.84;;;9.33;75.69
9695;BME280;4690;52.422;13.486;2023-02-22T01:22:56;101437.09;;;9.34;75.78
9695;BME280;4690;52.422;13.486;2023-02-22T01:25:28;101431.19;;;9.31;76.64
9695;BME280;4690;52.422;13.486;2023-02-22T01:27:55;101425.53;;;9.32;76.33
9695;BME280;4690;52.422;13.486;2023-02-22T01:30:26;101428.03;;;9.34;76.34
9695;BME280;4690;52.422;13.486;2023-02-22T01:32:52;101428.25;;;9.32;77.00
9695;BME280;4690;52.422;13.486;2023-02-22T01:35:23;101429.03;;;9.26;77.25
9695;BME280;4690;52.422;13.486;2023-02-22T01:37:50;101423.78;;;9.25;77.74
9695;BME280;4690;52.422;13.486;2023-02-22T01:40:27;101425.72;;;9.31;77.48
9695;BME280;4690;52.422;13.486;2023-02-22T01:42:58;101423.78;;;9.25;77.81
9695;BME280;4690;52.422;13.486;2023-02-22T01:48:15;101424.78;;;9.17;78.25
9695;BME280;4690;52.422;13.486;2023-02-22T01:54:06;101416.97;;;9.07;78.75
9695;BME280;4690;52.422;13.486;2023-02-22T01:56:39;101420.72;;;9.06;79.12
9695;BME280;4690;52.422;13.486;2023-02-22T01:59:09;101420.72;;;9.06;79.33
9695;BME280;4690;52.422;13.486;2023-02-22T02:01:38;101412.31;;;9.08;79.47
9695;BME280;4690;52.422;13.486;2023-02-22T02:04:18;101413.13;;;9.02;79.56
9695;BME280;4690;52.422;13.486;2023-02-22T02:06:46;101404.72;;;9.03;79.17
9695;BME280;4690;52.422;13.486;2023-02-22T02:09:34;101407.56;;;8.88;79.66
9695;BME280;4690;52.422;13.486;2023-02-22T02:12:02;101418.06;;;8.85;79.96
9695;BME280;4690;52.422;13.486;2023-02-22T02:14:31;101416.16;;;8.85;79.68
9695;BME280;4690;52.422;13.486;2023-02-22T02:16:58;101417.38;;;8.76;79.78
9695;BME280;4690;52.422;13.486;2023-02-22T02:19:44;101411.56;;;8.64;80.08
9695;BME280;4690;52.422;13.486;2023-02-22T02:27:52;101402.50;;;8.57;79.99
9695;BME280;4690;52.422;13.486;2023-02-22T02:39:00;101408.72;;;8.29;80.82
9695;BME280;4690;52.422;13.486;2023-02-22T02:41:38;101408.19;;;8.19;81.03
9695;BME280;4690;52.422;13.486;2023-02-22T02:47:00;101404.56;;;8.12;81.63
9695;BME280;4690;52.422;13.486;2023-02-22T02:49:47;101403.13;;;8.16;81.62
9695;BME280;4690;52.422;13.486;2023-02-22T02:52:18;101400.53;;;8.08;82.03
9695;BME280;4690;52.422;13.486;2023-02-22T02:54:47;101400.59;;;7.93;82.52
9695;BME280;4690;52.422;13.486;2023-02-22T02:57:13;101400.97;;;7.90;83.14
9695;BME280;4690;52.422;13.486;2023-02-22T02:59:39;101406.03;;;7.93;82.80
9695;BME280;4690;52.422;13.486;2023-02-22T03:05:42;101405.78;;;7.88;83.91
9695;BME280;4690;52.422;13.486;2023-02-22T03:08:37;101402.59;;;7.84;84.24
9695;BME280;4690;52.422;13.486;2023-02-22T03:14:15;101402.81;;;8.04;83.92
9695;BME280;4690;52.422;13.486;2023-02-22T03:16:51;101397.78;;;8.08;83.66
9695;BME280;4690;52.422;13.486;2023-02-22T03:19:39;101395.78;;;7.95;84.18
9695;BME280;4690;52.422;13.486;2023-02-22T03:22:30;101388.06;;;7.77;85.94
9695;BME280;4690;52.422;13.486;2023-02-22T03:25:04;101389.72;;;7.78;86.77
9695;BME280;4690;52.422;13.486;2023-02-22T03:28:00;101385.44;;;7.91;86.45
9695;BME280;4690;52.422;13.486;2023-02-22T03:30:49;101388.25;;;7.97;86.12
9695;BME280;4690;52.422;13.486;2023-02-22T03:33:29;101394.16;;;8.01;85.94
9695;BME280;4690;52.422;13.486;2023-02-22T03:36:13;101389.25;;;8.11;86.03
9695;BME280;4690;52.422;13.486;2023-02-22T03:38:43;101380.31;;;8.02;85.97
9695;BME280;4690;52.422;13.486;2023-02-22T03:41:12;101393.78;;;8.04;86.21
9695;BME280;4690;52.422;13.486;2023-02-22T03:43:50;101389.25;;;8.11;86.35
9695;BME280;4690;52.422;13.486;2023-02-22T03:46:19;101382.16;;;7.95;86.45
9695;BME280;4690;52.422;13.486;2023-02-22T03:49:13;101394.09;;;7.94;86.95
9695;BME280;4690;52.422;13.486;2023-02-22T03:51:41;101386.81;;;8.01;87.02
9695;BME280;4690;52.422;13.486;2023-02-22T03:54:08;101398.78;;;8.00;86.89
9695;BME280;4690;52.422;13.486;2023-02-22T03:56:54;101396.50;;;8.04;86.68
9695;BME280;4690;52.422;13.486;2023-02-22T03:59:22;101396.78;;;8.09;86.77
9695;BME280;4690;52.422;13.486;2023-02-22T04:01:54;101392.03;;;8.18;86.55
9695;BME280;4690;52.422;13.486;2023-02-22T04:04:20;101396.69;;;8.24;86.32
9695;BME280;4690;52.422;13.486;2023-02-22T04:06:46;101395.28;;;8.28;85.66
9695;BME280;4690;52.422;13.486;2023-02-22T04:09:16;101386.50;;;8.32;85.80
9695;BME280;4690;52.422;13.486;2023-02-22T04:11:43;101392.91;;;8.40;85.64
9695;BME280;4690;52.422;13.486;2023-02-22T04:14:08;101398.81;;;8.43;85.01
9695;BME280;4690;52.422;13.486;2023-02-22T04:16:34;101398.81;;;8.43;84.92
9695;BME280;4690;52.422;13.486;2023-02-22T04:19:00;101399.47;;;8.45;85.03
9695;BME280;4690;52.422;13.486;2023-02-22T04:21:26;101396.72;;;8.45;84.89
9695;BME280;4690;52.422;13.486;2023-02-22T04:23:51;101396.53;;;8.47;84.92
9695;BME280;4690;52.422;13.486;2023-02-22T04:26:17;101389.16;;;8.47;84.79
9695;BME280;4690;52.422;13.486;2023-02-22T04:28:43;101390.88;;;8.48;84.95
9695;BME280;4690;52.422;13.486;2023-02-22T04:31:09;101386.91;;;8.51;84.60
9695;BME280;4690;52.422;13.486;2023-02-22T04:33:35;101388.78;;;8.50;84.87
9695;BME280;4690;52.422;13.486;2023-02-22T04:36:01;101387.50;;;8.46;84.56
9695;BME280;4690;52.422;13.486;2023-02-22T04:38:27;101385.59;;;8.47;84.78
9695;BME280;4690;52.422;13.486;2023-02-22T04:40:53;101389.38;;;8.46;84.85
9695;BME280;4690;52.422;13.486;2023-02-22T04:43:20;101387.94;;;8.50;84.50
9695;BME280;4690;52.422;13.486;2023-02-22T04:45:46;101391.53;;;8.50;84.31
9695;BME280;4690;52.422;13.486;2023-02-22T04:48:12;101395.09;;;8.51;84.16
9695;BME280;4690;52.422;13.486;2023-02-22T04:50:38;101387.31;;;8.48;83.83
9695;BME280;4690;52.422;13.486;2023-02-22T04:53:05;101393.75;;;8.40;84.50
9695;BME280;4690;52.422;13.486;2023-02-22T04:55:31;101386.00;;;8.44;84.31
9695;BME280;4690;52.422;13.486;2023-02-22T04:57:57;101384.97;;;8.45;84.45
9695;BME280;4690;52.422;13.486;2023-02-22T05:00:22;101396.34;;;8.48;84.06
9695;BME280;4690;52.422;13.486;2023-02-22T05:02:49;101387.75;;;8.51;84.02
9695;BME280;4690;52.422;13.486;2023-02-22T05:05:18;101395.94;;;8.51;84.06
9695;BME280;4690;52.422;13.486;2023-02-22T05:07:49;101392.81;;;8.55;83.53
9695;BME280;4690;52.422;13.486;2023-02-22T05:10:16;101385.44;;;8.55;83.32
9695;BME280;4690;52.422;13.486;2023-02-22T05:12:41;101385.84;;;8.52;83.40
9695;BME280;4690;52.422;13.486;2023-02-22T05:15:08;101385.84;;;8.52;83.41
9695;BME280;4690;52.422;13.486;2023-02-22T05:17:35;101382.06;;;8.53;83.46
9695;BME280;4690;52.422;13.486;2023-02-22T05:20:03;101379.56;;;8.51;83.62
9695;BME280;4690;52.422;13.486;2023-02-22T05:22:29;101388.78;;;8.50;83.90
9695;BME280;4690;52.422;13.486;2023-02-22T05:24:55;101379.72;;;8.50;83.47
9695;BME280;4690;52.422;13.486;2023-02-22T05:27:21;101386.25;;;8.49;83.85
9695;BME280;4690;52.422;13.486;2023-02-22T05:29:47;101380.59;;;8.50;83.78
9695;BME280;4690;52.422;13.486;2023-02-22T05:32:13;101384.16;;;8.51;83.55
9695;BME280;4690;52.422;13.486;2023-02-22T05:34:39;101378.31;;;8.54;83.59
9695;BME280;4690;52.422;13.486;2023-02-22T05:37:05;101371.78;;;8.55;83.28
9695;BME280;4690;52.422;13.486;2023-02-22T05:39:31;101370.78;;;8.56;83.13
9695;BME280;4690;52.422;13.486;2023-02-22T05:41:57;101383.56;;;8.56;84.03
9695;BME280;4690;52.422;13.486;2023-02-22T05:44:24;101382.53;;;8.57;83.57
9695;BME280;4690;52.422;13.486;2023-02-22T05:46:50;101384.22;;;8.58;83.76
9695;BME280;4690;52.422;13.486;2023-02-22T05:49:15;101386.09;;;8.57;83.44
9695;BME280;4690;52.422;13.486;2023-02-22T05:51:41;101382.53;;;8.57;83.46
9695;BME280;4690;52.422;13.486;2023-02-22T05:54:07;101386.75;;;8.59;83.28
9695;BME280;4690;52.422;13.486;2023-02-22T05:56:33;101390.13;;;8.61;83.70
9695;BME280;4690;52.422;13.486;2023-02-22T05:58:58;101396.63;;;8.60;83.68
9695;BME280;4690;52.422;13.486;2023-02-22T06:01:25;101398.31;;;8.61;83.49
9695;BME280;4690;52.422;13.486;2023-02-22T06:03:52;101384.47;;;8.63;83.57
9695;BME280;4690;52.422;13.486;2023-02-22T06:06:19;101388.47;;;8.67;83.45
9695;BME280;4690;52.422;13.486;2023-02-22T06:08:46;101394.81;;;8.67;83.15
9695;BME280;4690;52.422;13.486;2023-02-22T06:11:12;101396.09;;;8.71;83.10
9695;BME280;4690;52.422;13.486;2023-02-22T06:13:38;101389.97;;;8.69;83.12
9695;BME280;4690;52.422;13.486;2023-02-22T06:16:05;101399.47;;;8.73;83.24
9695;BME280;4690;52.422;13.486;2023-02-22T06:18:31;101394.03;;;8.73;83.00
9695;BME280;4690;52.422;13.486;2023-02-22T06:20:58;101400.97;;;8.76;83.39
9695;BME280;4690;52.422;13.486;2023-02-22T06:23:25;101403.50;;;8.78;83.12
9695;BME280;4690;52.422;13.486;2023-02-22T06:25:52;101408.38;;;8.82;83.46
9695;BME280;4690;52.422;13.486;2023-02-22T06:28:18;101408.16;;;8.84;82.61
9695;BME280;4690;52.422;13.486;2023-02-22T06:30:44;101415.94;;;8.87;83.28
9695;BME280;4690;52.422;13.486;2023-02-22T06:33:10;101406.72;;;8.88;82.85
9695;BME280;4690;52.422;13.486;2023-02-22T06:35:36;101405.41;;;8.84;82.88
9695;BME280;4690;52.422;13.486;2023-02-22T06:38:03;101414.69;;;8.83;83.16
9695;BME280;4690;52.422;13.486;2023-02-22T06:40:28;101415.13;;;8.86;83.09
9695;BME280;4690;52.422;13.486;2023-02-22T06:42:56;101416.59;;;8.89;83.28
9695;BME280;4690;52.422;13.486;2023-02-22T06:45:22;101425.66;;;8.89;83.04
9695;BME280;4690;52.422;13.486;2023-02-22T06:47:48;101418.66;;;8.80;83.31
9695;BME280;4690;52.422;13.486;2023-02-22T06:50:25;101421.19;;;8.82;83.49
9695;BME280;4690;52.422;13.486;2023-02-22T06:52:51;101413.44;;;8.85;83.23
9695;BME280;4690;52.422;13.486;2023-02-22T06:55:26;101427.91;;;8.79;83.50
9695;BME280;4690;52.422;13.486;2023-02-22T06:57:52;101421.19;;;8.82;83.08
9695;BME280;4690;52.422;13.486;2023-02-22T07:00:22;101427.50;;;8.82;82.83
9695;BME280;4690;52.422;13.486;2023-02-22T07:02:50;101429.84;;;8.85;82.51
9695;BME280;4690;52.422;13.486;2023-02-22T07:05:19;101427.97;;;8.92;82.92
9695;BME280;4690;52.422;13.486;2023-02-22T07:07:47;101425.31;;;8.99;82.45
9695;BME280;4690;52.422;13.486;2023-02-22T07:10:37;101431.44;;;9.01;81.70
9695;BME280;4690;52.422;13.486;2023-02-22T07:13:05;101428.34;;;9.11;81.36
9695;BME280;4690;52.422;13.486;2023-02-22T07:15:34;101433.00;;;9.17;81.06
9695;BME280;4690;52.422;13.486;2023-02-22T07:18:00;101437.63;;;9.16;80.20
9695;BME280;4690;52.422;13.486;2023-02-22T07:20:29;101441.19;;;9.17;80.57
9695;BME280;4690;52.422;13.486;2023-02-22T07:22:55;101439.78;;;9.21;80.97
9695;BME280;4690;52.422;13.486;2023-02-22T07:25:22;101448.66;;;9.30;80.59
9695;BME280;4690;52.422;13.486;2023-02-22T07:27:48;101444.44;;;9.34;80.19
9695;BME280;4690;52.422;13.486;2023-02-22T07:30:33;101437.31;;;9.33;79.99
9695;BME280;4690;52.422;13.486;2023-02-22T07:33:05;101443.81;;;9.32;80.43
9695;BME280;4690;52.422;13.486;2023-02-22T07:35:34;101442.63;;;9.41;80.13
9695;BME280;4690;52.422;13.486;2023-02-22T07:38:06;101444.13;;;9.50;80.29
9695;BME280;4690;52.422;13.486;2023-02-22T07:40:36;101439.72;;;9.56;79.40
9695;BME280;4690;52.422;13.486;2023-02-22T07:43:24;101450.03;;;9.54;79.43
9695;BME280;4690;52.422;13.486;2023-02-22T07:45:59;101439.97;;;9.61;78.79
9695;BME280;4690;52.422;13.486;2023-02-22T07:48:29;101439.97;;;9.61;79.08
9695;BME280;4690;52.422;13.486;2023-02-22T07:50:56;101444.81;;;9.65;78.49
9695;BME280;4690;52.422;13.486;2023-02-22T07:53:29;101439.56;;;9.64;78.11
9695;BME280;4690;52.422;13.486;2023-02-22T07:55:57;101433.28;;;9.70;78.27
9695;BME280;4690;52.422;13.486;2023-02-22T07:58:26;101441.91;;;9.67;78.23
9695;BME280;4690;52.422;13.486;2023-02-22T08:00:52;101441.72;;;9.69;78.48
9695;BME280;4690;52.422;13.486;2023-02-22T08:03:22;101440.06;;;9.81;77.95
9695;BME280;4690;52.422;13.486;2023-02-22T08:05:53;101441.31;;;9.78;77.25
9695;BME280;4690;52.422;13.486;2023-02-22T08:08:21;101440.06;;;9.81;77.18
9695;BME280;4690;52.422;13.486;2023-02-22T08:10:48;101441.13;;;9.86;77.11
9695;BME280;4690;52.422;13.486;2023-02-22T08:13:16;101442.84;;;9.94;77.04
9695;BME280;4690;52.422;13.486;2023-02-22T08:15:42;101441.78;;;9.95;76.64
9695;BME280;4690;52.422;13.486;2023-02-22T08:18:16;101441.56;;;9.90;76.99
9695;BME280;4690;52.422;13.486;2023-02-22T08:20:45;101440.53;;;9.98;76.51
9695;BME280;4690;52.422;13.486;2023-02-22T08:23:13;101445.41;;;10.02;77.12
9695;BME280;4690;52.422;13.486;2023-02-22T08:25:39;101445.00;;;10.12;76.60
9695;BME280;4690;52.422;13.486;2023-02-22T08:28:10;101440.41;;;10.19;76.04
9695;BME280;4690;52.422;13.486;2023-02-22T08:30:39;101442.50;;;10.24;76.07
9695;BME280;4690;52.422;13.486;2023-02-22T08:33:09;101442.56;;;10.30;75.85
9695;BME280;4690;52.422;13.486;2023-02-22T08:35:35;101443.41;;;10.31;75.12
9695;BME280;4690;52.422;13.486;2023-02-22T08:38:05;101442.97;;;10.34;75.33
9695;BME280;4690;52.422;13.486;2023-02-22T08:40:35;101438.91;;;10.23;74.67
9695;BME280;4690;52.422;13.486;2023-02-22T08:43:02;101435.31;;;10.16;75.36
9695;BME280;4690;52.422;13.486;2023-02-22T08:45:28;101435.38;;;10.29;74.81
9695;BME280;4690;52.422;13.486;2023-02-22T08:47:55;101438.75;;;10.31;74.29
9695;BME280;4690;52.422;13.486;2023-02-22T08:50:27;101436.38;;;10.22;74.50
9695;BME280;4690;52.422;13.486;2023-02-22T08:52:57;101436.03;;;10.31;74.40
9695;BME280;4690;52.422;13.486;2023-02-22T08:55:27;101434.97;;;10.39;74.63
9695;BME280;4690;52.422;13.486;2023-02-22T08:57:54;101440.03;;;10.42;74.85
9695;BME280;4690;52.422;13.486;2023-02-22T09:00:21;101443.81;;;10.41;73.92
9695;BME280;4690;52.422;13.486;2023-02-22T09:02:50;101437.53;;;10.47;74.22
9695;BME280;4690;52.422;13.486;2023-02-22T09:05:16;101435.41;;;10.49;74.19
9695;BME280;4690;52.422;13.486;2023-02-22T09:07:43;101440.69;;;10.51;73.61
9695;BME280;4690;52.422;13.486;2023-02-22T09:10:19;101436.47;;;10.55;73.88
9695;BME280;4690;52.422;13.486;2023-02-22T09:12:45;101437.28;;;10.55;73.52
9695;BME280;4690;52.422;13.486;2023-02-22T09:15:11;101439.41;;;10.67;73.58
9695;BME280;4690;52.422;13.486;2023-02-22T09:17:38;101439.22;;;10.68;73.25
9695;BME280;4690;52.422;13.486;2023-02-22T09:20:07;101448.25;;;10.55;73.67
9695;BME280;4690;52.422;13.486;2023-02-22T09:22:33;101447.63;;;10.67;73.66
9695;BME280;4690;52.422;13.486;2023-02-22T09:24:59;101435.00;;;10.66;73.69
9695;BME280;4690;52.422;13.486;2023-02-22T09:27:25;101434.13;;;10.52;73.88
9695;BME280;4690;52.422;13.486;2023-02-22T09:29:53;101437.09;;;10.64;73.39
9695;BME280;4690;52.422;13.486;2023-02-22T09:32:19;101437.13;;;10.70;73.40
9695;BME280;4690;52.422;13.486;2023-02-22T09:34:45;101442.78;;;10.69;73.30
9695;BME280;4690;52.422;13.486;2023-02-22T09:37:12;101430.16;;;10.68;72.55
9695;BME280;4690;52.422;13.486;2023-02-22T09:39:38;101430.13;;;10.61;72.92
9695;BME280;4690;52.422;13.486;2023-02-22T09:42:28;101432.47;;;10.84;72.12
9695;BME280;4690;52.422;13.486;2023-02-22T09:45:22;101430.75;;;10.96;72.04
9695;BME280;4690;52.422;13.486;2023-02-22T09:48:01;101429.47;;;11.06;71.29
9695;BME280;4690;52.422;13.486;2023-02-22T09:50:37;101431.84;;;10.95;71.52
9695;BME280;4690;52.422;13.486;2023-02-22T09:53:24;101423.78;;;11.14;70.73
9695;BME280;4690;52.422;13.486;2023-02-22T09:56:06;101420.38;;;11.25;70.20
9695;BME280;4690;52.422;13.486;2023-02-22T09:58:39;101415.72;;;11.26;70.07
9695;BME280;4690;52.422;13.486;2023-02-22T10:01:27;101418.00;;;11.42;70.16
9695;BME280;4690;52.422;13.486;2023-02-22T10:04:19;101412.47;;;11.49;69.22
9695;BME280;4690;52.422;13.486;2023-02-22T10:07:30;101425.97;;;11.63;69.26
9695;BME280;4690;52.422;13.486;2023-02-22T10:09:57;101421.78;;;11.48;68.23
9695;BME280;4690;52.422;13.486;2023-02-22T10:26:43;101410.88;;;11.28;68.92
9695;BME280;4690;52.422;13.486;2023-02-22T10:29:42;101406.41;;;11.33;67.10
9695;BME280;4690;52.422;13.486;2023-02-22T10:32:23;101399.44;;;11.37;67.16
9695;BME280;4690;52.422;13.486;2023-02-22T10:34:52;101395.91;;;11.24;67.54
9695;BME280;4690;52.422;13.486;2023-02-22T10:37:32;101399.03;;;11.34;68.17
9695;BME280;4690;52.422;13.486;2023-02-22T10:40:19;101406.59;;;11.52;67.17
9695;BME280;4690;52.422;13.486;2023-02-22T10:42:48;101402.97;;;11.58;66.45
9695;BME280;4690;52.422;13.486;2023-02-22T10:45:29;101400.66;;;11.55;66.43
9695;BME280;4690;52.422;13.486;2023-02-22T10:48:00;101397.16;;;11.86;64.68
9695;BME280;4690;52.422;13.486;2023-02-22T10:50:34;101394.19;;;11.81;65.82
9695;BME280;4690;52.422;13.486;2023-02-22T10:53:01;101401.59;;;11.80;65.27
9695;BME280;4690;52.422;13.486;2023-02-22T10:55:28;101399.88;;;11.79;65.58
9695;BME280;4690;52.422;13.486;2023-02-22T10:58:06;101396.38;;;11.65;65.20
9695;BME280;4690;52.422;13.486;2023-02-22T11:00:38;101397.03;;;11.54;65.81
9695;BME280;4690;52.422;13.486;2023-02-22T11:03:19;101396.59;;;11.64;65.48
9695;BME280;4690;52.422;13.486;2023-02-22T11:05:47;101394.50;;;11.66;65.23
9695;BME280;4690;52.422;13.486;2023-02-22T11:10:47;101400.06;;;11.46;65.05
9695;BME280;4690;52.422;13.486;2023-02-22T11:13:22;101393.09;;;11.43;65.64
9695;BME280;4690;52.422;13.486;2023-02-22T11:15:52;101390.06;;;11.58;65.92
9695;BME280;4690;52.422;13.486;2023-02-22T11:18:34;101387.78;;;11.49;65.94
9695;BME280;4690;52.422;13.486;2023-02-22T11:21:11;101386.00;;;11.67;65.38
9695;BME280;4690;52.422;13.486;2023-02-22T11:23:41;101387.25;;;11.78;64.03
9695;BME280;4690;52.422;13.486;2023-02-22T11:26:12;101385.50;;;11.91;64.15
9695;BME280;4690;52.422;13.486;2023-02-22T11:28:45;101382.69;;;12.04;62.74
9695;BME280;4690;52.422;13.486;2023-02-22T11:31:26;101388.31;;;12.16;61.14
9695;BME280;4690;52.422;13.486;2023-02-22T11:36:34;101379.16;;;11.90;60.92
9695;BME280;4690;52.422;13.486;2023-02-22T11:39:05;101380.44;;;11.94;60.42
9695;BME280;4690;52.422;13.486;2023-02-22T11:41:35;101372.41;;;11.93;60.54
9695;BME280;4690;52.422;13.486;2023-02-22T11:44:27;101365.06;;;11.73;61.72
9695;BME280;4690;52.422;13.486;2023-02-22T11:47:00;101365.19;;;11.98;61.32
9695;BME280;4690;52.422;13.486;2023-02-22T11:49:38;101358.09;;;12.16;61.65
9695;BME280;4690;52.422;13.486;2023-02-22T11:52:23;101355.13;;;12.17;60.70
9695;BME280;4690;52.422;13.486;2023-02-22T11:55:16;101355.31;;;12.22;60.90
9695;BME280;4690;52.422;13.486;2023-02-22T12:01:56;101352.41;;;12.10;60.83
9695;BME280;4690;52.422;13.486;2023-02-22T12:10:32;101342.41;;;12.23;59.21
9695;BME280;4690;52.422;13.486;2023-02-22T12:19:45;101342.00;;;12.69;58.55
9695;BME280;4690;52.422;13.486;2023-02-22T12:21:53;101343.81;;;12.32;59.33
9695;BME280;4690;52.422;13.486;2023-02-22T12:24:33;101344.31;;;12.22;59.12
9695;BME280;4690;52.422;13.486;2023-02-22T12:27:09;101338.63;;;12.17;59.41
9695;BME280;4690;52.422;13.486;2023-02-22T12:29:57;101338.59;;;11.92;60.62
9695;BME280;4690;52.422;13.486;2023-02-22T12:32:49;101341.13;;;11.94;60.41
9695;BME280;4690;52.422;13.486;2023-02-22T12:35:27;101331.91;;;12.13;60.37
9695;BME280;4690;52.422;13.486;2023-02-22T12:41:29;101333.81;;;12.13;59.36
9695;BME280;4690;52.422;13.486;2023-02-22T12:46:40;101329.03;;;12.01;60.54
9695;BME280;4690;52.422;13.486;2023-02-22T12:49:16;101335.78;;;12.05;59.92
9695;BME280;4690;52.422;13.486;2023-02-22T12:52:11;101336.91;;;11.84;60.11
9695;BME280;4690;52.422;13.486;2023-02-22T12:57:26;101336.63;;;11.99;60.12
9695;BME280;4690;52.422;13.486;2023-02-22T13:00:04;101338.38;;;11.94;59.42
9695;BME280;4690;52.422;13.486;2023-02-22T13:02:43;101338.38;;;11.94;60.02
9695;BME280;4690;52.422;13.486;2023-02-22T13:05:17;101332.59;;;12.02;59.35
9695;BME280;4690;52.422;13.486;2023-02-22T13:08:25;101331.81;;;11.95;59.49
9695;BME280;4690;52.422;13.486;2023-02-22T13:17:19;101325.56;;;12.13;59.64
9695;BME280;4690;52.422;13.486;2023-02-22T13:22:43;101321.34;;;12.10;59.19
9695;BME280;4690;52.422;13.486;2023-02-22T13:25:15;101315.13;;;12.21;59.48
9695;BME280;4690;52.422;13.486;2023-02-22T13:27:56;101320.03;;;12.19;58.98
9695;BME280;4690;52.422;13.486;2023-02-22T13:30:42;101322.13;;;11.92;59.62
9695;BME280;4690;52.422;13.486;2023-02-22T13:36:55;101307.66;;;11.72;61.66
9695;BME280;4690;52.422;13.486;2023-02-22T13:43:47;101308.16;;;11.94;60.64
9695;BME280;4690;52.422;13.486;2023-02-22T13:46:13;101305.22;;;12.20;59.88
9695;BME280;4690;52.422;13.486;2023-02-22T13:49:19;101301.28;;;12.09;59.66
9695;BME280;4690;52.422;13.486;2023-02-22T13:52:10;101304.81;;;11.85;60.56
9695;BME280;4690;52.422;13.486;2023-02-22T13:54:45;101296.16;;;11.88;60.56
9695;BME280;4690;52.422;13.486;2023-02-22T13:57:42;101293.44;;;11.81;61.01
9695;BME280;4690;52.422;13.486;2023-02-22T14:03:02;101302.44;;;11.95;60.99
9695;BME280;4690;52.422;13.486;2023-02-22T14:10:53;101308.25;;;12.12;60.07
9695;BME280;4690;52.422;13.486;2023-02-22T14:13:28;101302.19;;;12.03;59.98
9695;BME280;4690;52.422;13.486;2023-02-22T14:18:36;101294.50;;;11.80;60.48
9695;BME280;4690;52.422;13.486;2023-02-22T14:21:13;101293.22;;;11.83;60.95
9695;BME280;4690;52.422;13.486;2023-02-22T14:23:44;101292.81;;;11.79;61.01
9695;BME280;4690;52.422;13.486;2023-02-22T14:34:19;101290.81;;;11.61;61.74
9695;BME280;4690;52.422;13.486;2023-02-22T14:45:02;101280.16;;;11.40;62.68
9695;BME280;4690;52.422;13.486;2023-02-22T14:55:43;101274.41;;;11.55;63.08
9695;BME280;4690;52.422;13.486;2023-02-22T14:58:19;101271.47;;;11.50;63.43
9695;BME280;4690;52.422;13.486;2023-02-22T15:00:50;101270.38;;;11.57;63.41
9695;BME280;4690;52.422;13.486;2023-02-22T15:05:47;101266.63;;;11.77;62.36
9695;BME280;4690;52.422;13.486;2023-02-22T15:08:16;101270.88;;;11.73;62.02
9695;BME280;4690;52.422;13.486;2023-02-22T15:10:49;101271.09;;;11.71;62.27
9695;BME280;4690;52.422;13.486;2023-02-22T15:15:56;101263.19;;;11.56;62.87
9695;BME280;4690;52.422;13.486;2023-02-22T15:18:31;101248.44;;;11.51;63.13
9695;BME280;4690;52.422;13.486;2023-02-22T15:21:21;101264.94;;;11.44;63.72
9695;BME280;4690;52.422;13.486;2023-02-22T15:28:58;101256.28;;;11.47;63.94
9695;BME280;4690;52.422;13.486;2023-02-22T15:31:36;101256.72;;;11.44;64.13
9695;BME280;4690;52.422;13.486;2023-02-22T15:34:20;101253.09;;;11.50;63.61
9695;BME280;4690;52.422;13.486;2023-02-22T15:36:51;101255.00;;;11.43;63.10
9695;BME280;4690;52.422;13.486;2023-02-22T15:39:29;101252.75;;;11.33;63.70
9695;BME280;4690;52.422;13.486;2023-02-22T15:42:16;101255.59;;;11.13;64.31
9695;BME280;4690;52.422;13.486;2023-02-22T15:44:51;101256.84;;;11.17;64.33
9695;BME280;4690;52.422;13.486;2023-02-22T15:47:28;101258.94;;;11.22;63.88
9695;BME280;4690;52.422;13.486;2023-02-22T15:50:26;101256.63;;;11.19;64.13
9695;BME280;4690;52.422;13.486;2023-02-22T15:55:35;101247.41;;;11.07;65.03